Union Trader — SVAX6 — position and weather

sailwx.info

Track history (hours):
 
Tides and Currents Weather Stations Pressure Air Temp Water Temp Dewpoint Dewpoint Depression Visibility Wind Speed Wind Dir Waves Ship Positions

Union Trader

Last reported at 2015-Mar-30 00:33 UTC. Time now 2015-Mar-30 01:09 UTC.
Position N 34°28' W 121°22'.

Length 190 m; draft 9.8 m.

Type: Cargo ship. MMSI: 240982000.

Date/timePositionNaut miles runAvg speedWind from/ knotsBaromVisibWave heightAir tempDewpointWater temp
2015-Mar-30 00:33N 34°28' W 121°22'1313.1
2015-Mar-29 23:33N 34°30' W 121°38'1312.9
2015-Mar-29 22:33N 34°31' W 121°54'1312.8
2015-Mar-29 21:33N 34°33' W 122°09'1312.4
2015-Mar-29 20:33N 34°34' W 122°24'1512.6
2015-Mar-29 19:21N 34°36' W 122°42'2812.5
2015-Mar-29 17:05N 34°39' W 123°16'1212.9
2015-Mar-29 16:11N 34°41' W 123°30'812.9
2015-Mar-29 15:32N 34°41' W 123°41'1312.9
2015-Mar-29 14:31N 34°43' W 123°57'1312.9
2015-Mar-29 13:32N 34°44' W 124°12'1312.8
2015-Mar-29 12:32N 34°46' W 124°27'1812.6
2015-Mar-29 11:07N 34°48' W 124°49'812.5
2015-Mar-29 10:30N 34°49' W 124°58'2412.4
2015-Mar-29 08:33N 34°52' W 125°27'1212.4
2015-Mar-29 07:33N 34°53' W 125°42'1111.5
2015-Mar-29 06:33N 34°54' W 125°56'1110.9
2015-Mar-29 05:31N 34°56' W 126°10'1212.3
2015-Mar-29 04:33N 34°57' W 126°24'1412.4
2015-Mar-29 03:23N 34°59' W 126°42'1012.4
2015-Mar-29 02:33N 34°60' W 126°54'1312.7
2015-Mar-29 01:33N 35°01' W 127°10'1312.5
2015-Mar-29 00:31N 35°03' W 127°25'1312.7
2015-Mar-28 23:30N 35°04' W 127°41'1512.6
2015-Mar-28 22:20N 35°06' W 127°59'1012.1
2015-Mar-28 21:30N 35°07' W 128°11'2812.5
2015-Mar-28 19:17N 35°10' W 128°45'  
Track history (hours):
 
Tides and Currents Weather Stations Pressure Air Temp Water Temp Dewpoint Dewpoint Depression Visibility Wind Speed Wind Dir Waves Ship Positions

Union Trader

Last reported at 2015-Mar-30 00:33 UTC. Time now 2015-Mar-30 01:09 UTC.
Position N 34°28' W 121°22'.

Length 190 m; draft 9.8 m.

Type: Cargo ship. MMSI: 240982000.

Date/timePositionNaut miles runAvg speedWind from/ knotsBaromVisibWave heightAir tempDewpointWater temp
2015-Mar-30 00:33N 34°28' W 121°22'1313.1
2015-Mar-29 23:33N 34°30' W 121°38'1312.9
2015-Mar-29 22:33N 34°31' W 121°54'1312.8
2015-Mar-29 21:33N 34°33' W 122°09'1312.4
2015-Mar-29 20:33N 34°34' W 122°24'1512.6
2015-Mar-29 19:21N 34°36' W 122°42'2812.5
2015-Mar-29 17:05N 34°39' W 123°16'1212.9
2015-Mar-29 16:11N 34°41' W 123°30'812.9
2015-Mar-29 15:32N 34°41' W 123°41'1312.9
2015-Mar-29 14:31N 34°43' W 123°57'1312.9
2015-Mar-29 13:32N 34°44' W 124°12'1312.8
2015-Mar-29 12:32N 34°46' W 124°27'1812.6
2015-Mar-29 11:07N 34°48' W 124°49'812.5
2015-Mar-29 10:30N 34°49' W 124°58'2412.4
2015-Mar-29 08:33N 34°52' W 125°27'1212.4
2015-Mar-29 07:33N 34°53' W 125°42'1111.5
2015-Mar-29 06:33N 34°54' W 125°56'1110.9
2015-Mar-29 05:31N 34°56' W 126°10'1212.3
2015-Mar-29 04:33N 34°57' W 126°24'1412.4
2015-Mar-29 03:23N 34°59' W 126°42'1012.4
2015-Mar-29 02:33N 34°60' W 126°54'1312.7
2015-Mar-29 01:33N 35°01' W 127°10'1312.5
2015-Mar-29 00:31N 35°03' W 127°25'1312.7
2015-Mar-28 23:30N 35°04' W 127°41'1512.6
2015-Mar-28 22:20N 35°06' W 127°59'1012.1
2015-Mar-28 21:30N 35°07' W 128°11'2812.5
2015-Mar-28 19:17N 35°10' W 128°45'  

Dump ship's entire track history